sensor_id;sensor_type;location;lat;lon;timestamp;temperature;humidity
1429;DHT22;708;51.442;7.016;2023-11-19T00:00:51;12.40;99.90
1429;DHT22;708;51.442;7.016;2023-11-19T00:03:20;12.40;99.90
1429;DHT22;708;51.442;7.016;2023-11-19T00:05:47;12.50;99.90
1429;DHT22;708;51.442;7.016;2023-11-19T00:08:14;12.50;99.90
1429;DHT22;708;51.442;7.016;2023-11-19T00:10:40;12.50;99.90
1429;DHT22;708;51.442;7.016;2023-11-19T00:13:07;12.60;99.90
1429;DHT22;708;51.442;7.016;2023-11-19T00:15:36;12.60;99.90
1429;DHT22;708;51.442;7.016;2023-11-19T00:18:02;12.70;99.90
1429;DHT22;708;51.442;7.016;2023-11-19T00:20:31;12.70;99.90
1429;DHT22;708;51.442;7.016;2023-11-19T00:22:58;12.80;99.90
1429;DHT22;708;51.442;7.016;2023-11-19T00:25:26;12.80;99.90
1429;DHT22;708;51.442;7.016;2023-11-19T00:27:53;12.90;99.90
1429;DHT22;708;51.442;7.016;2023-11-19T00:30:21;12.90;99.90
1429;DHT22;708;51.442;7.016;2023-11-19T00:32:48;13.00;99.90
1429;DHT22;708;51.442;7.016;2023-11-19T00:35:15;13.00;99.90
1429;DHT22;708;51.442;7.016;2023-11-19T00:37:43;13.10;99.90
1429;DHT22;708;51.442;7.016;2023-11-19T00:40:11;13.10;99.90
1429;DHT22;708;51.442;7.016;2023-11-19T00:42:38;13.10;99.90
1429;DHT22;708;51.442;7.016;2023-11-19T00:45:05;13.10;99.90
1429;DHT22;708;51.442;7.016;2023-11-19T00:47:35;13.20;99.90
1429;DHT22;708;51.442;7.016;2023-11-19T00:50:03;13.20;99.90
1429;DHT22;708;51.442;7.016;2023-11-19T00:52:29;13.20;99.90
1429;DHT22;708;51.442;7.016;2023-11-19T00:54:58;13.20;99.90
1429;DHT22;708;51.442;7.016;2023-11-19T00:57:25;13.30;99.90
1429;DHT22;708;51.442;7.016;2023-11-19T00:59:52;13.30;99.90
1429;DHT22;708;51.442;7.016;2023-11-19T01:02:19;13.30;99.90
1429;DHT22;708;51.442;7.016;2023-11-19T01:04:46;13.40;99.90
1429;DHT22;708;51.442;7.016;2023-11-19T01:07:13;13.40;99.90
1429;DHT22;708;51.442;7.016;2023-11-19T01:09:41;13.40;99.90
1429;DHT22;708;51.442;7.016;2023-11-19T01:12:10;13.50;99.90
1429;DHT22;708;51.442;7.016;2023-11-19T01:14:36;13.50;99.90
1429;DHT22;708;51.442;7.016;2023-11-19T01:17:03;13.60;99.90
1429;DHT22;708;51.442;7.016;2023-11-19T01:19:31;13.60;99.90
1429;DHT22;708;51.442;7.016;2023-11-19T01:21:58;13.60;99.90
1429;DHT22;708;51.442;7.016;2023-11-19T01:24:24;13.60;99.90
1429;DHT22;708;51.442;7.016;2023-11-19T01:26:54;13.70;99.90
1429;DHT22;708;51.442;7.016;2023-11-19T01:29:22;13.70;99.90
1429;DHT22;708;51.442;7.016;2023-11-19T01:31:49;13.70;99.90
1429;DHT22;708;51.442;7.016;2023-11-19T01:34:16;13.70;99.90
1429;DHT22;708;51.442;7.016;2023-11-19T01:36:43;13.80;99.90
1429;DHT22;708;51.442;7.016;2023-11-19T01:39:11;13.80;99.90
1429;DHT22;708;51.442;7.016;2023-11-19T01:41:41;13.80;99.90
1429;DHT22;708;51.442;7.016;2023-11-19T01:44:08;13.80;99.90
1429;DHT22;708;51.442;7.016;2023-11-19T01:46:40;13.80;99.90
1429;DHT22;708;51.442;7.016;2023-11-19T01:49:08;13.80;99.90
1429;DHT22;708;51.442;7.016;2023-11-19T01:51:37;13.90;99.90
1429;DHT22;708;51.442;7.016;2023-11-19T01:54:05;13.90;99.90
1429;DHT22;708;51.442;7.016;2023-11-19T01:56:32;13.90;99.90
1429;DHT22;708;51.442;7.016;2023-11-19T01:58:59;14.00;99.90
1429;DHT22;708;51.442;7.016;2023-11-19T02:01:27;14.00;99.90
1429;DHT22;708;51.442;7.016;2023-11-19T02:03:56;14.00;99.90
1429;DHT22;708;51.442;7.016;2023-11-19T02:06:24;13.90;99.90
1429;DHT22;708;51.442;7.016;2023-11-19T02:08:52;13.90;99.90
1429;DHT22;708;51.442;7.016;2023-11-19T02:11:19;13.90;99.90
1429;DHT22;708;51.442;7.016;2023-11-19T02:13:46;13.90;99.90
1429;DHT22;708;51.442;7.016;2023-11-19T02:16:13;14.00;99.90
1429;DHT22;708;51.442;7.016;2023-11-19T02:18:40;14.00;99.90
1429;DHT22;708;51.442;7.016;2023-11-19T02:21:08;14.00;99.90
1429;DHT22;708;51.442;7.016;2023-11-19T02:23:36;14.10;99.90
1429;DHT22;708;51.442;7.016;2023-11-19T02:26:10;14.10;99.90
1429;DHT22;708;51.442;7.016;2023-11-19T02:28:41;14.10;99.90
1429;DHT22;708;51.442;7.016;2023-11-19T02:31:08;14.10;99.90
1429;DHT22;708;51.442;7.016;2023-11-19T02:33:35;14.10;99.90
1429;DHT22;708;51.442;7.016;2023-11-19T02:36:03;14.10;99.90
1429;DHT22;708;51.442;7.016;2023-11-19T02:38:30;14.10;99.90
1429;DHT22;708;51.442;7.016;2023-11-19T02:40:57;14.10;99.90
1429;DHT22;708;51.442;7.016;2023-11-19T02:43:24;14.10;99.90
1429;DHT22;708;51.442;7.016;2023-11-19T02:45:52;14.20;99.90
1429;DHT22;708;51.442;7.016;2023-11-19T02:48:21;14.20;99.90
1429;DHT22;708;51.442;7.016;2023-11-19T02:50:48;14.20;99.90
1429;DHT22;708;51.442;7.016;2023-11-19T02:53:14;14.30;99.90
1429;DHT22;708;51.442;7.016;2023-11-19T02:55:42;14.30;99.90
1429;DHT22;708;51.442;7.016;2023-11-19T02:58:14;14.30;99.90
1429;DHT22;708;51.442;7.016;2023-11-19T03:00:49;14.40;99.90
1429;DHT22;708;51.442;7.016;2023-11-19T03:03:23;14.40;99.90
1429;DHT22;708;51.442;7.016;2023-11-19T03:05:56;14.40;99.90
1429;DHT22;708;51.442;7.016;2023-11-19T03:08:23;14.40;99.90
1429;DHT22;708;51.442;7.016;2023-11-19T03:10:50;14.50;99.90
1429;DHT22;708;51.442;7.016;2023-11-19T03:13:16;14.40;99.90
1429;DHT22;708;51.442;7.016;2023-11-19T03:15:43;14.50;99.90
1429;DHT22;708;51.442;7.016;2023-11-19T03:18:10;14.50;99.90
1429;DHT22;708;51.442;7.016;2023-11-19T03:20:38;14.50;99.90
1429;DHT22;708;51.442;7.016;2023-11-19T03:23:06;14.50;99.90
1429;DHT22;708;51.442;7.016;2023-11-19T03:25:33;14.50;99.90
1429;DHT22;708;51.442;7.016;2023-11-19T03:28:00;14.50;99.90
1429;DHT22;708;51.442;7.016;2023-11-19T03:30:27;14.50;99.90
1429;DHT22;708;51.442;7.016;2023-11-19T03:32:54;14.50;99.90
1429;DHT22;708;51.442;7.016;2023-11-19T03:35:21;14.40;99.90
1429;DHT22;708;51.442;7.016;2023-11-19T03:37:50;14.40;99.90
1429;DHT22;708;51.442;7.016;2023-11-19T03:40:17;14.30;99.90
1429;DHT22;708;51.442;7.016;2023-11-19T03:42:44;14.20;99.90
1429;DHT22;708;51.442;7.016;2023-11-19T03:45:11;14.10;99.90
1429;DHT22;708;51.442;7.016;2023-11-19T03:47:38;14.10;99.90
1429;DHT22;708;51.442;7.016;2023-11-19T03:50:06;14.00;99.90
1429;DHT22;708;51.442;7.016;2023-11-19T03:52:34;14.00;99.90
1429;DHT22;708;51.442;7.016;2023-11-19T03:55:02;13.90;99.90
1429;DHT22;708;51.442;7.016;2023-11-19T03:57:30;13.90;99.90
1429;DHT22;708;51.442;7.016;2023-11-19T03:59:57;13.80;99.90
1429;DHT22;708;51.442;7.016;2023-11-19T04:02:24;13.80;99.90
1429;DHT22;708;51.442;7.016;2023-11-19T04:04:53;13.70;99.90
1429;DHT22;708;51.442;7.016;2023-11-19T04:07:23;13.70;99.90
1429;DHT22;708;51.442;7.016;2023-11-19T04:09:50;13.70;99.90
1429;DHT22;708;51.442;7.016;2023-11-19T04:12:18;13.60;99.90
1429;DHT22;708;51.442;7.016;2023-11-19T04:14:45;13.60;99.90
1429;DHT22;708;51.442;7.016;2023-11-19T04:17:12;13.60;99.90
1429;DHT22;708;51.442;7.016;2023-11-19T04:19:38;13.50;99.90
1429;DHT22;708;51.442;7.016;2023-11-19T04:22:07;13.50;99.90
1429;DHT22;708;51.442;7.016;2023-11-19T04:24:34;13.50;99.90
1429;DHT22;708;51.442;7.016;2023-11-19T04:27:01;13.40;99.90
1429;DHT22;708;51.442;7.016;2023-11-19T04:29:30;13.40;99.90
1429;DHT22;708;51.442;7.016;2023-11-19T04:31:57;13.40;99.90
1429;DHT22;708;51.442;7.016;2023-11-19T04:34:24;13.30;99.90
1429;DHT22;708;51.442;7.016;2023-11-19T04:36:51;13.30;99.90
1429;DHT22;708;51.442;7.016;2023-11-19T04:39:18;13.40;99.90
1429;DHT22;708;51.442;7.016;2023-11-19T04:41:48;13.40;99.90
1429;DHT22;708;51.442;7.016;2023-11-19T04:44:15;13.40;99.90
1429;DHT22;708;51.442;7.016;2023-11-19T04:46:44;13.40;99.90
1429;DHT22;708;51.442;7.016;2023-11-19T04:49:12;13.50;99.90
1429;DHT22;708;51.442;7.016;2023-11-19T04:51:39;13.50;99.90
1429;DHT22;708;51.442;7.016;2023-11-19T04:54:07;13.50;99.90
1429;DHT22;708;51.442;7.016;2023-11-19T04:56:34;13.60;99.90
1429;DHT22;708;51.442;7.016;2023-11-19T04:59:01;13.60;99.90
1429;DHT22;708;51.442;7.016;2023-11-19T05:01:29;13.60;99.90
1429;DHT22;708;51.442;7.016;2023-11-19T05:03:57;13.60;99.90
1429;DHT22;708;51.442;7.016;2023-11-19T05:06:26;13.60;99.90
1429;DHT22;708;51.442;7.016;2023-11-19T05:08:54;13.60;99.90
1429;DHT22;708;51.442;7.016;2023-11-19T05:11:20;13.60;99.90
1429;DHT22;708;51.442;7.016;2023-11-19T05:13:47;13.60;99.90
1429;DHT22;708;51.442;7.016;2023-11-19T05:16:14;13.70;99.90
1429;DHT22;708;51.442;7.016;2023-11-19T05:18:41;13.70;99.90
1429;DHT22;708;51.442;7.016;2023-11-19T05:21:09;13.80;99.90
1429;DHT22;708;51.442;7.016;2023-11-19T05:23:36;13.80;99.90
1429;DHT22;708;51.442;7.016;2023-11-19T05:26:03;13.80;99.90
1429;DHT22;708;51.442;7.016;2023-11-19T05:28:30;13.90;99.90
1429;DHT22;708;51.442;7.016;2023-11-19T05:30:57;13.90;99.90
1429;DHT22;708;51.442;7.016;2023-11-19T05:33:24;14.00;99.90
1429;DHT22;708;51.442;7.016;2023-11-19T05:35:51;14.10;99.90
1429;DHT22;708;51.442;7.016;2023-11-19T05:38:19;14.10;99.90
1429;DHT22;708;51.442;7.016;2023-11-19T05:40:46;14.10;99.90
1429;DHT22;708;51.442;7.016;2023-11-19T05:43:14;14.20;99.90
1429;DHT22;708;51.442;7.016;2023-11-19T05:45:42;14.20;99.90
1429;DHT22;708;51.442;7.016;2023-11-19T05:48:09;14.20;99.90
1429;DHT22;708;51.442;7.016;2023-11-19T05:50:36;14.20;99.90
1429;DHT22;708;51.442;7.016;2023-11-19T05:53:03;14.20;99.90
1429;DHT22;708;51.442;7.016;2023-11-19T05:55:33;14.30;99.90
1429;DHT22;708;51.442;7.016;2023-11-19T05:58:01;14.20;99.90
1429;DHT22;708;51.442;7.016;2023-11-19T06:00:28;14.10;99.90
1429;DHT22;708;51.442;7.016;2023-11-19T06:02:56;14.10;99.90
1429;DHT22;708;51.442;7.016;2023-11-19T06:05:23;14.00;99.90
1429;DHT22;708;51.442;7.016;2023-11-19T06:07:49;14.00;99.90
1429;DHT22;708;51.442;7.016;2023-11-19T06:10:17;14.00;99.90
1429;DHT22;708;51.442;7.016;2023-11-19T06:12:46;14.00;99.90
1429;DHT22;708;51.442;7.016;2023-11-19T06:15:13;14.00;99.90
1429;DHT22;708;51.442;7.016;2023-11-19T06:17:40;14.00;99.90
1429;DHT22;708;51.442;7.016;2023-11-19T06:20:07;13.90;99.90
1429;DHT22;708;51.442;7.016;2023-11-19T06:22:35;13.80;99.90
1429;DHT22;708;51.442;7.016;2023-11-19T06:25:02;13.70;99.90
1429;DHT22;708;51.442;7.016;2023-11-19T06:27:32;13.70;99.90
1429;DHT22;708;51.442;7.016;2023-11-19T06:30:01;13.70;99.90
1429;DHT22;708;51.442;7.016;2023-11-19T06:32:28;13.70;99.90
1429;DHT22;708;51.442;7.016;2023-11-19T06:34:55;13.70;99.90
1429;DHT22;708;51.442;7.016;2023-11-19T06:37:22;13.70;99.90
1429;DHT22;708;51.442;7.016;2023-11-19T06:39:49;13.80;99.90
1429;DHT22;708;51.442;7.016;2023-11-19T06:42:16;13.70;99.90
1429;DHT22;708;51.442;7.016;2023-11-19T06:44:43;13.70;99.90
1429;DHT22;708;51.442;7.016;2023-11-19T06:47:11;13.60;99.90
1429;DHT22;708;51.442;7.016;2023-11-19T06:49:38;13.60;99.90
1429;DHT22;708;51.442;7.016;2023-11-19T06:52:05;13.60;99.90
1429;DHT22;708;51.442;7.016;2023-11-19T06:54:32;13.60;99.90
1429;DHT22;708;51.442;7.016;2023-11-19T06:56:59;13.50;99.90
1429;DHT22;708;51.442;7.016;2023-11-19T06:59:25;13.50;99.90
1429;DHT22;708;51.442;7.016;2023-11-19T07:01:52;13.50;99.90
1429;DHT22;708;51.442;7.016;2023-11-19T07:04:21;13.60;99.90
1429;DHT22;708;51.442;7.016;2023-11-19T07:06:48;13.60;99.90
1429;DHT22;708;51.442;7.016;2023-11-19T07:09:14;13.60;99.90
1429;DHT22;708;51.442;7.016;2023-11-19T07:11:42;13.50;99.90
1429;DHT22;708;51.442;7.016;2023-11-19T07:14:11;13.50;99.90
1429;DHT22;708;51.442;7.016;2023-11-19T07:16:38;13.50;99.90
1429;DHT22;708;51.442;7.016;2023-11-19T07:19:05;13.50;99.90
1429;DHT22;708;51.442;7.016;2023-11-19T07:21:33;13.40;99.90
1429;DHT22;708;51.442;7.016;2023-11-19T07:24:02;13.40;99.90
1429;DHT22;708;51.442;7.016;2023-11-19T07:26:28;13.50;99.90
1429;DHT22;708;51.442;7.016;2023-11-19T07:28:55;13.50;99.90
1429;DHT22;708;51.442;7.016;2023-11-19T07:31:23;13.60;99.90
1429;DHT22;708;51.442;7.016;2023-11-19T07:33:50;13.60;99.90
1429;DHT22;708;51.442;7.016;2023-11-19T07:36:17;13.60;99.90
1429;DHT22;708;51.442;7.016;2023-11-19T07:38:45;13.60;99.90
1429;DHT22;708;51.442;7.016;2023-11-19T07:41:13;13.60;99.90
1429;DHT22;708;51.442;7.016;2023-11-19T07:43:41;13.60;99.90
1429;DHT22;708;51.442;7.016;2023-11-19T07:46:11;13.70;99.90
1429;DHT22;708;51.442;7.016;2023-11-19T07:48:39;13.80;99.90
1429;DHT22;708;51.442;7.016;2023-11-19T07:51:06;13.90;99.90
1429;DHT22;708;51.442;7.016;2023-11-19T07:53:32;14.00;99.90
1429;DHT22;708;51.442;7.016;2023-11-19T07:56:01;14.00;99.90
1429;DHT22;708;51.442;7.016;2023-11-19T07:58:28;14.10;99.90
1429;DHT22;708;51.442;7.016;2023-11-19T08:00:55;14.40;99.90
1429;DHT22;708;51.442;7.016;2023-11-19T08:03:22;14.80;99.90
1429;DHT22;708;51.442;7.016;2023-11-19T08:05:48;15.00;99.90
1429;DHT22;708;51.442;7.016;2023-11-19T08:08:16;15.30;99.90
1429;DHT22;708;51.442;7.016;2023-11-19T08:10:43;15.60;99.90
1429;DHT22;708;51.442;7.016;2023-11-19T08:13:11;15.60;99.90
1429;DHT22;708;51.442;7.016;2023-11-19T08:15:38;15.50;99.90
1429;DHT22;708;51.442;7.016;2023-11-19T08:18:06;15.50;99.90
1429;DHT22;708;51.442;7.016;2023-11-19T08:20:32;15.60;99.90
1429;DHT22;708;51.442;7.016;2023-11-19T08:23:02;15.60;99.90
1429;DHT22;708;51.442;7.016;2023-11-19T08:25:34;15.60;99.90
1429;DHT22;708;51.442;7.016;2023-11-19T08:28:05;15.60;99.90
1429;DHT22;708;51.442;7.016;2023-11-19T08:30:36;15.50;99.90
1429;DHT22;708;51.442;7.016;2023-11-19T08:33:03;15.50;99.90
1429;DHT22;708;51.442;7.016;2023-11-19T08:35:31;15.70;99.90
1429;DHT22;708;51.442;7.016;2023-11-19T08:37:58;15.90;99.90
1429;DHT22;708;51.442;7.016;2023-11-19T08:40:25;16.00;99.90
1429;DHT22;708;51.442;7.016;2023-11-19T08:42:52;15.90;99.90
1429;DHT22;708;51.442;7.016;2023-11-19T08:45:19;15.90;99.90
1429;DHT22;708;51.442;7.016;2023-11-19T08:47:47;15.80;99.90
1429;DHT22;708;51.442;7.016;2023-11-19T08:50:14;15.70;99.90
1429;DHT22;708;51.442;7.016;2023-11-19T08:52:40;15.80;99.90
1429;DHT22;708;51.442;7.016;2023-11-19T08:55:07;16.00;99.90
1429;DHT22;708;51.442;7.016;2023-11-19T08:57:35;16.30;99.90
1429;DHT22;708;51.442;7.016;2023-11-19T09:00:02;16.50;99.90
1429;DHT22;708;51.442;7.016;2023-11-19T09:02:30;17.00;99.90
1429;DHT22;708;51.442;7.016;2023-11-19T09:04:59;17.60;99.90
1429;DHT22;708;51.442;7.016;2023-11-19T09:07:26;17.70;99.90
1429;DHT22;708;51.442;7.016;2023-11-19T09:09:53;17.70;99.90
1429;DHT22;708;51.442;7.016;2023-11-19T09:12:19;17.60;99.90
1429;DHT22;708;51.442;7.016;2023-11-19T09:14:46;17.80;99.90
1429;DHT22;708;51.442;7.016;2023-11-19T09:17:14;18.10;99.90
1429;DHT22;708;51.442;7.016;2023-11-19T09:19:41;17.90;99.90
1429;DHT22;708;51.442;7.016;2023-11-19T09:22:10;17.60;99.90
1429;DHT22;708;51.442;7.016;2023-11-19T09:24:36;17.30;99.90
1429;DHT22;708;51.442;7.016;2023-11-19T09:27:04;17.10;99.90
1429;DHT22;708;51.442;7.016;2023-11-19T09:29:32;16.70;99.90
1429;DHT22;708;51.442;7.016;2023-11-19T09:31:59;16.50;99.90
1429;DHT22;708;51.442;7.016;2023-11-19T09:34:26;16.30;99.90
1429;DHT22;708;51.442;7.016;2023-11-19T09:36:53;16.20;99.90
1429;DHT22;708;51.442;7.016;2023-11-19T09:39:21;16.00;99.90
1429;DHT22;708;51.442;7.016;2023-11-19T09:41:48;15.90;99.90
1429;DHT22;708;51.442;7.016;2023-11-19T09:44:15;15.90;99.90
1429;DHT22;708;51.442;7.016;2023-11-19T09:46:44;15.90;99.90
1429;DHT22;708;51.442;7.016;2023-11-19T09:49:11;16.10;99.90
1429;DHT22;708;51.442;7.016;2023-11-19T09:51:39;16.10;99.90
1429;DHT22;708;51.442;7.016;2023-11-19T09:54:07;16.20;99.90
1429;DHT22;708;51.442;7.016;2023-11-19T09:56:38;16.40;99.90
1429;DHT22;708;51.442;7.016;2023-11-19T09:59:05;16.60;99.90
1429;DHT22;708;51.442;7.016;2023-11-19T10:01:32;16.70;99.90
1429;DHT22;708;51.442;7.016;2023-11-19T10:04:01;16.70;99.90
1429;DHT22;708;51.442;7.016;2023-11-19T10:06:28;16.60;99.90
1429;DHT22;708;51.442;7.016;2023-11-19T10:08:55;16.50;99.90
1429;DHT22;708;51.442;7.016;2023-11-19T10:11:22;16.40;99.90
1429;DHT22;708;51.442;7.016;2023-11-19T10:13:52;16.20;99.90
1429;DHT22;708;51.442;7.016;2023-11-19T10:16:19;16.20;99.90
1429;DHT22;708;51.442;7.016;2023-11-19T10:18:47;16.20;99.90
1429;DHT22;708;51.442;7.016;2023-11-19T10:21:18;16.10;99.90
1429;DHT22;708;51.442;7.016;2023-11-19T10:23:49;16.20;99.90
1429;DHT22;708;51.442;7.016;2023-11-19T10:26:18;16.10;99.90
1429;DHT22;708;51.442;7.016;2023-11-19T10:28:52;15.90;99.90
1429;DHT22;708;51.442;7.016;2023-11-19T10:31:20;16.00;99.90
1429;DHT22;708;51.442;7.016;2023-11-19T10:33:50;15.80;99.90
1429;DHT22;708;51.442;7.016;2023-11-19T10:36:17;15.90;99.90
1429;DHT22;708;51.442;7.016;2023-11-19T10:38:52;15.90;99.90
1429;DHT22;708;51.442;7.016;2023-11-19T10:41:29;16.00;99.90
1429;DHT22;708;51.442;7.016;2023-11-19T10:43:57;16.10;99.90
1429;DHT22;708;51.442;7.016;2023-11-19T10:46:36;16.10;99.90
1429;DHT22;708;51.442;7.016;2023-11-19T10:49:04;16.10;99.90
1429;DHT22;708;51.442;7.016;2023-11-19T10:51:32;16.10;99.90
1429;DHT22;708;51.442;7.016;2023-11-19T10:54:02;16.00;99.90
1429;DHT22;708;51.442;7.016;2023-11-19T10:56:31;16.00;99.90
1429;DHT22;708;51.442;7.016;2023-11-19T10:59:01;16.00;99.90
1429;DHT22;708;51.442;7.016;2023-11-19T11:01:37;16.00;99.90
1429;DHT22;708;51.442;7.016;2023-11-19T11:04:12;16.00;99.90
1429;DHT22;708;51.442;7.016;2023-11-19T11:06:40;16.00;99.90
1429;DHT22;708;51.442;7.016;2023-11-19T11:09:07;16.00;99.90
1429;DHT22;708;51.442;7.016;2023-11-19T11:11:37;16.00;99.90
1429;DHT22;708;51.442;7.016;2023-11-19T11:14:07;16.10;99.90
1429;DHT22;708;51.442;7.016;2023-11-19T11:16:34;16.10;99.90
1429;DHT22;708;51.442;7.016;2023-11-19T11:19:02;16.10;99.90
1429;DHT22;708;51.442;7.016;2023-11-19T11:21:29;16.10;99.90
1429;DHT22;708;51.442;7.016;2023-11-19T11:24:24;16.20;99.90
1429;DHT22;708;51.442;7.016;2023-11-19T11:27:08;16.20;99.90
1429;DHT22;708;51.442;7.016;2023-11-19T11:29:45;16.10;99.90
1429;DHT22;708;51.442;7.016;2023-11-19T11:32:27;16.10;99.90
1429;DHT22;708;51.442;7.016;2023-11-19T11:35:08;16.10;99.90
1429;DHT22;708;51.442;7.016;2023-11-19T11:37:44;16.10;99.90
1429;DHT22;708;51.442;7.016;2023-11-19T11:40:14;16.10;99.90
1429;DHT22;708;51.442;7.016;2023-11-19T11:42:41;16.20;99.90
1429;DHT22;708;51.442;7.016;2023-11-19T11:45:10;16.30;99.90
1429;DHT22;708;51.442;7.016;2023-11-19T11:48:12;16.50;99.90
1429;DHT22;708;51.442;7.016;2023-11-19T11:50:50;16.60;99.90
1429;DHT22;708;51.442;7.016;2023-11-19T11:53:19;16.70;99.90
1429;DHT22;708;51.442;7.016;2023-11-19T11:55:58;16.80;99.90
1429;DHT22;708;51.442;7.016;2023-11-19T11:58:31;16.90;99.90
1429;DHT22;708;51.442;7.016;2023-11-19T12:01:02;16.80;99.90
1429;DHT22;708;51.442;7.016;2023-11-19T12:03:31;16.70;99.90
1429;DHT22;708;51.442;7.016;2023-11-19T12:05:58;16.60;99.90
1429;DHT22;708;51.442;7.016;2023-11-19T12:08:28;16.50;99.90
1429;DHT22;708;51.442;7.016;2023-11-19T12:10:57;16.40;99.90
1429;DHT22;708;51.442;7.016;2023-11-19T12:13:46;16.30;99.90
1429;DHT22;708;51.442;7.016;2023-11-19T12:16:15;16.20;99.90
1429;DHT22;708;51.442;7.016;2023-11-19T12:18:42;16.20;99.90
1429;DHT22;708;51.442;7.016;2023-11-19T12:21:09;16.30;99.90
1429;DHT22;708;51.442;7.016;2023-11-19T12:23:46;16.30;99.90
1429;DHT22;708;51.442;7.016;2023-11-19T12:26:30;16.40;99.90
1429;DHT22;708;51.442;7.016;2023-11-19T12:28:58;16.40;99.90
1429;DHT22;708;51.442;7.016;2023-11-19T12:31:27;16.30;99.90
1429;DHT22;708;51.442;7.016;2023-11-19T12:33:53;16.20;99.90
1429;DHT22;708;51.442;7.016;2023-11-19T12:36:20;16.20;99.90
1429;DHT22;708;51.442;7.016;2023-11-19T12:38:48;16.20;99.90
1429;DHT22;708;51.442;7.016;2023-11-19T12:41:16;16.20;99.90
1429;DHT22;708;51.442;7.016;2023-11-19T12:43:46;16.20;99.90
1429;DHT22;708;51.442;7.016;2023-11-19T12:46:20;16.20;99.90
1429;DHT22;708;51.442;7.016;2023-11-19T12:48:48;16.20;99.90
1429;DHT22;708;51.442;7.016;2023-11-19T12:51:15;16.20;99.90
1429;DHT22;708;51.442;7.016;2023-11-19T12:53:50;15.90;99.90
1429;DHT22;708;51.442;7.016;2023-11-19T12:56:19;15.60;99.90
1429;DHT22;708;51.442;7.016;2023-11-19T12:58:46;15.40;99.90
1429;DHT22;708;51.442;7.016;2023-11-19T13:01:16;15.10;99.90
1429;DHT22;708;51.442;7.016;2023-11-19T13:03:44;14.90;99.90
1429;DHT22;708;51.442;7.016;2023-11-19T13:06:13;14.80;99.90
1429;DHT22;708;51.442;7.016;2023-11-19T13:08:42;14.70;99.90
1429;DHT22;708;51.442;7.016;2023-11-19T13:11:11;14.60;99.90
1429;DHT22;708;51.442;7.016;2023-11-19T13:14:02;14.60;99.90
1429;DHT22;708;51.442;7.016;2023-11-19T13:16:29;14.50;99.90
1429;DHT22;708;51.442;7.016;2023-11-19T13:18:57;14.60;99.90
1429;DHT22;708;51.442;7.016;2023-11-19T13:21:26;14.70;99.90
1429;DHT22;708;51.442;7.016;2023-11-19T13:23:52;14.80;99.90
1429;DHT22;708;51.442;7.016;2023-11-19T13:26:19;14.90;99.90
1429;DHT22;708;51.442;7.016;2023-11-19T13:28:46;14.90;99.90
1429;DHT22;708;51.442;7.016;2023-11-19T13:31:14;15.00;99.90
1429;DHT22;708;51.442;7.016;2023-11-19T13:33:41;15.00;99.90
1429;DHT22;708;51.442;7.016;2023-11-19T13:36:08;15.10;99.90
1429;DHT22;708;51.442;7.016;2023-11-19T13:38:37;15.20;99.90
1429;DHT22;708;51.442;7.016;2023-11-19T13:41:06;15.10;99.90
1429;DHT22;708;51.442;7.016;2023-11-19T13:43:35;15.10;99.90
1429;DHT22;708;51.442;7.016;2023-11-19T13:46:02;15.00;99.90
1429;DHT22;708;51.442;7.016;2023-11-19T13:48:29;15.00;99.90
1429;DHT22;708;51.442;7.016;2023-11-19T13:50:56;15.00;99.90
1429;DHT22;708;51.442;7.016;2023-11-19T13:53:23;15.00;99.90
1429;DHT22;708;51.442;7.016;2023-11-19T13:55:51;14.90;99.90
1429;DHT22;708;51.442;7.016;2023-11-19T13:58:18;14.90;99.90
1429;DHT22;708;51.442;7.016;2023-11-19T14:00:45;14.80;99.90
1429;DHT22;708;51.442;7.016;2023-11-19T14:03:12;14.80;99.90
1429;DHT22;708;51.442;7.016;2023-11-19T14:05:39;14.80;99.90
1429;DHT22;708;51.442;7.016;2023-11-19T14:08:06;14.80;99.90
1429;DHT22;708;51.442;7.016;2023-11-19T14:10:37;14.80;99.90
1429;DHT22;708;51.442;7.016;2023-11-19T14:13:07;14.80;99.90
1429;DHT22;708;51.442;7.016;2023-11-19T14:15:34;14.80;99.90
1429;DHT22;708;51.442;7.016;2023-11-19T14:18:01;14.70;99.90
1429;DHT22;708;51.442;7.016;2023-11-19T14:20:28;14.70;99.90
1429;DHT22;708;51.442;7.016;2023-11-19T14:22:58;14.70;99.90
1429;DHT22;708;51.442;7.016;2023-11-19T14:25:25;14.80;99.90
1429;DHT22;708;51.442;7.016;2023-11-19T14:27:52;14.70;99.90
1429;DHT22;708;51.442;7.016;2023-11-19T14:30:20;14.60;99.90
1429;DHT22;708;51.442;7.016;2023-11-19T14:32:46;14.50;99.90
1429;DHT22;708;51.442;7.016;2023-11-19T14:35:15;14.40;99.90
1429;DHT22;708;51.442;7.016;2023-11-19T14:37:42;14.40;99.90
1429;DHT22;708;51.442;7.016;2023-11-19T14:40:09;14.40;99.90
1429;DHT22;708;51.442;7.016;2023-11-19T14:42:37;14.30;99.90
1429;DHT22;708;51.442;7.016;2023-11-19T14:45:05;14.40;99.90
1429;DHT22;708;51.442;7.016;2023-11-19T14:47:33;14.40;99.90
1429;DHT22;708;51.442;7.016;2023-11-19T14:50:00;14.40;99.90
1429;DHT22;708;51.442;7.016;2023-11-19T14:52:28;14.40;99.90
1429;DHT22;708;51.442;7.016;2023-11-19T14:54:55;14.30;99.90
1429;DHT22;708;51.442;7.016;2023-11-19T14:57:22;14.20;99.90
1429;DHT22;708;51.442;7.016;2023-11-19T14:59:48;14.10;99.90
1429;DHT22;708;51.442;7.016;2023-11-19T15:02:15;14.00;99.90
1429;DHT22;708;51.442;7.016;2023-11-19T15:04:44;14.00;99.90
1429;DHT22;708;51.442;7.016;2023-11-19T15:07:11;13.90;99.90
1429;DHT22;708;51.442;7.016;2023-11-19T15:09:38;13.80;99.90
1429;DHT22;708;51.442;7.016;2023-11-19T15:12:05;13.70;99.90
1429;DHT22;708;51.442;7.016;2023-11-19T15:14:32;13.70;99.90
1429;DHT22;708;51.442;7.016;2023-11-19T15:16:59;13.70;99.90
1429;DHT22;708;51.442;7.016;2023-11-19T15:19:26;13.60;99.90
1429;DHT22;708;51.442;7.016;2023-11-19T15:21:54;13.50;99.90
1429;DHT22;708;51.442;7.016;2023-11-19T15:24:21;13.40;99.90
1429;DHT22;708;51.442;7.016;2023-11-19T15:26:48;13.40;99.90
1429;DHT22;708;51.442;7.016;2023-11-19T15:29:15;13.40;99.90
1429;DHT22;708;51.442;7.016;2023-11-19T15:31:42;13.50;99.90
1429;DHT22;708;51.442;7.016;2023-11-19T15:34:09;13.50;99.90
1429;DHT22;708;51.442;7.016;2023-11-19T15:36:36;13.50;99.90
1429;DHT22;708;51.442;7.016;2023-11-19T15:39:04;13.50;99.90
1429;DHT22;708;51.442;7.016;2023-11-19T15:41:31;13.40;99.90
1429;DHT22;708;51.442;7.016;2023-11-19T15:43:58;13.30;99.90
1429;DHT22;708;51.442;7.016;2023-11-19T15:46:25;13.30;99.90
1429;DHT22;708;51.442;7.016;2023-11-19T15:48:52;13.20;99.90
1429;DHT22;708;51.442;7.016;2023-11-19T15:51:19;13.20;99.90
1429;DHT22;708;51.442;7.016;2023-11-19T15:53:46;13.20;99.90
1429;DHT22;708;51.442;7.016;2023-11-19T15:56:14;13.10;99.90
1429;DHT22;708;51.442;7.016;2023-11-19T15:58:41;13.00;99.90
1429;DHT22;708;51.442;7.016;2023-11-19T16:01:08;13.10;99.90
1429;DHT22;708;51.442;7.016;2023-11-19T16:03:35;13.00;99.90
1429;DHT22;708;51.442;7.016;2023-11-19T16:06:02;13.10;99.90
1429;DHT22;708;51.442;7.016;2023-11-19T16:08:29;13.10;99.90
1429;DHT22;708;51.442;7.016;2023-11-19T16:10:56;13.20;99.90
1429;DHT22;708;51.442;7.016;2023-11-19T16:13:25;13.20;99.90
1429;DHT22;708;51.442;7.016;2023-11-19T16:15:51;13.20;99.90
1429;DHT22;708;51.442;7.016;2023-11-19T16:18:19;13.30;99.90
1429;DHT22;708;51.442;7.016;2023-11-19T16:20:46;13.30;99.90
1429;DHT22;708;51.442;7.016;2023-11-19T16:23:12;13.30;99.90